sensor_id;sensor_type;location;lat;lon;timestamp;P1;durP1;ratioP1;P2;durP2;ratioP2
56760;SDS011;42633;44.494;11.356;2023-04-24T00:00:27;6.40;;;3.58;;
56760;SDS011;42633;44.494;11.356;2023-04-24T00:03:32;7.60;;;3.20;;
56760;SDS011;42633;44.494;11.356;2023-04-24T00:06:37;5.60;;;3.55;;
56760;SDS011;42633;44.494;11.356;2023-04-24T00:09:42;8.27;;;3.78;;
56760;SDS011;42633;44.494;11.356;2023-04-24T00:12:47;9.23;;;3.40;;
56760;SDS011;42633;44.494;11.356;2023-04-24T00:15:55;7.57;;;2.75;;
56760;SDS011;42633;44.494;11.356;2023-04-24T00:18:59;5.53;;;2.83;;
56760;SDS011;42633;44.494;11.356;2023-04-24T00:22:05;9.38;;;3.90;;
56760;SDS011;42633;44.494;11.356;2023-04-24T00:25:10;6.20;;;3.03;;
56760;SDS011;42633;44.494;11.356;2023-04-24T00:28:14;9.05;;;3.35;;
56760;SDS011;42633;44.494;11.356;2023-04-24T00:31:19;6.60;;;3.50;;
56760;SDS011;42633;44.494;11.356;2023-04-24T00:34:25;7.88;;;3.45;;
56760;SDS011;42633;44.494;11.356;2023-04-24T00:37:29;7.28;;;3.42;;
56760;SDS011;42633;44.494;11.356;2023-04-24T00:40:34;6.93;;;3.45;;
56760;SDS011;42633;44.494;11.356;2023-04-24T00:43:39;6.18;;;3.20;;
56760;SDS011;42633;44.494;11.356;2023-04-24T00:46:49;11.10;;;3.20;;
56760;SDS011;42633;44.494;11.356;2023-04-24T00:49:58;5.75;;;3.13;;
56760;SDS011;42633;44.494;11.356;2023-04-24T00:53:02;6.20;;;2.92;;
56760;SDS011;42633;44.494;11.356;2023-04-24T00:56:07;5.50;;;2.97;;
56760;SDS011;42633;44.494;11.356;2023-04-24T00:59:12;8.45;;;3.47;;
56760;SDS011;42633;44.494;11.356;2023-04-24T01:02:17;4.82;;;3.03;;
56760;SDS011;42633;44.494;11.356;2023-04-24T01:05:22;8.77;;;3.28;;
56760;SDS011;42633;44.494;11.356;2023-04-24T01:08:27;6.63;;;3.17;;
56760;SDS011;42633;44.494;11.356;2023-04-24T01:11:34;6.88;;;3.20;;
56760;SDS011;42633;44.494;11.356;2023-04-24T01:14:40;5.80;;;3.20;;
56760;SDS011;42633;44.494;11.356;2023-04-24T01:17:45;6.17;;;2.90;;
56760;SDS011;42633;44.494;11.356;2023-04-24T01:20:53;5.18;;;2.90;;
56760;SDS011;42633;44.494;11.356;2023-04-24T01:24:01;6.10;;;2.80;;
56760;SDS011;42633;44.494;11.356;2023-04-24T01:27:09;5.68;;;2.78;;
56760;SDS011;42633;44.494;11.356;2023-04-24T01:30:14;7.00;;;3.17;;
56760;SDS011;42633;44.494;11.356;2023-04-24T01:33:20;4.78;;;3.05;;
56760;SDS011;42633;44.494;11.356;2023-04-24T01:36:27;7.38;;;2.67;;
56760;SDS011;42633;44.494;11.356;2023-04-24T01:43:35;7.13;;;3.00;;
56760;SDS011;42633;44.494;11.356;2023-04-24T01:46:47;6.88;;;3.10;;
56760;SDS011;42633;44.494;11.356;2023-04-24T01:53:24;7.10;;;3.60;;
56760;SDS011;42633;44.494;11.356;2023-04-24T01:56:30;6.35;;;3.45;;
56760;SDS011;42633;44.494;11.356;2023-04-24T01:59:37;9.45;;;3.40;;
56760;SDS011;42633;44.494;11.356;2023-04-24T02:02:42;7.13;;;3.20;;
56760;SDS011;42633;44.494;11.356;2023-04-24T02:05:53;4.82;;;2.85;;
56760;SDS011;42633;44.494;11.356;2023-04-24T02:09:01;7.25;;;3.10;;
56760;SDS011;42633;44.494;11.356;2023-04-24T02:12:11;7.35;;;2.78;;
56760;SDS011;42633;44.494;11.356;2023-04-24T02:15:16;10.97;;;2.70;;
56760;SDS011;42633;44.494;11.356;2023-04-24T02:18:21;5.40;;;3.03;;
56760;SDS011;42633;44.494;11.356;2023-04-24T02:21:26;5.47;;;3.05;;
56760;SDS011;42633;44.494;11.356;2023-04-24T02:24:31;5.68;;;2.78;;
56760;SDS011;42633;44.494;11.356;2023-04-24T02:27:37;6.88;;;2.75;;
56760;SDS011;42633;44.494;11.356;2023-04-24T02:33:48;7.65;;;2.78;;
56760;SDS011;42633;44.494;11.356;2023-04-24T02:36:53;7.93;;;3.03;;
56760;SDS011;42633;44.494;11.356;2023-04-24T02:39:59;8.55;;;3.30;;
56760;SDS011;42633;44.494;11.356;2023-04-24T02:43:03;12.55;;;3.10;;
56760;SDS011;42633;44.494;11.356;2023-04-24T02:46:13;5.75;;;2.85;;
56760;SDS011;42633;44.494;11.356;2023-04-24T02:49:17;7.10;;;3.25;;
56760;SDS011;42633;44.494;11.356;2023-04-24T02:52:21;10.25;;;3.65;;
56760;SDS011;42633;44.494;11.356;2023-04-24T02:55:31;8.40;;;2.92;;
56760;SDS011;42633;44.494;11.356;2023-04-24T02:58:40;5.75;;;3.03;;
56760;SDS011;42633;44.494;11.356;2023-04-24T03:01:52;11.27;;;3.28;;
56760;SDS011;42633;44.494;11.356;2023-04-24T03:04:57;7.43;;;3.47;;
56760;SDS011;42633;44.494;11.356;2023-04-24T03:08:01;10.80;;;3.55;;
56760;SDS011;42633;44.494;11.356;2023-04-24T03:11:07;7.88;;;3.30;;
56760;SDS011;42633;44.494;11.356;2023-04-24T03:14:13;9.35;;;3.55;;
56760;SDS011;42633;44.494;11.356;2023-04-24T03:17:23;7.68;;;3.60;;
56760;SDS011;42633;44.494;11.356;2023-04-24T03:20:28;9.80;;;3.20;;
56760;SDS011;42633;44.494;11.356;2023-04-24T03:23:34;6.27;;;3.00;;
56760;SDS011;42633;44.494;11.356;2023-04-24T03:26:39;7.95;;;2.97;;
56760;SDS011;42633;44.494;11.356;2023-04-24T03:30:02;10.68;;;3.05;;
56760;SDS011;42633;44.494;11.356;2023-04-24T03:33:24;8.38;;;3.40;;
56760;SDS011;42633;44.494;11.356;2023-04-24T03:36:39;6.97;;;3.33;;
56760;SDS011;42633;44.494;11.356;2023-04-24T03:39:47;11.07;;;3.53;;
56760;SDS011;42633;44.494;11.356;2023-04-24T03:42:54;11.50;;;4.75;;
56760;SDS011;42633;44.494;11.356;2023-04-24T03:46:00;8.57;;;4.15;;
56760;SDS011;42633;44.494;11.356;2023-04-24T03:49:05;7.47;;;2.97;;
56760;SDS011;42633;44.494;11.356;2023-04-24T03:52:14;6.78;;;3.17;;
56760;SDS011;42633;44.494;11.356;2023-04-24T03:55:20;8.60;;;3.40;;
56760;SDS011;42633;44.494;11.356;2023-04-24T03:58:27;9.13;;;3.13;;
56760;SDS011;42633;44.494;11.356;2023-04-24T04:01:32;8.73;;;3.47;;
56760;SDS011;42633;44.494;11.356;2023-04-24T04:04:46;7.93;;;3.50;;
56760;SDS011;42633;44.494;11.356;2023-04-24T04:07:52;8.80;;;3.03;;
56760;SDS011;42633;44.494;11.356;2023-04-24T04:11:00;10.40;;;2.80;;
56760;SDS011;42633;44.494;11.356;2023-04-24T04:14:06;9.45;;;3.08;;
56760;SDS011;42633;44.494;11.356;2023-04-24T04:17:12;8.48;;;3.30;;
56760;SDS011;42633;44.494;11.356;2023-04-24T04:20:18;8.32;;;3.40;;
56760;SDS011;42633;44.494;11.356;2023-04-24T04:23:22;7.72;;;3.60;;
56760;SDS011;42633;44.494;11.356;2023-04-24T04:26:39;9.23;;;4.15;;
56760;SDS011;42633;44.494;11.356;2023-04-24T04:32:58;10.20;;;4.40;;
56760;SDS011;42633;44.494;11.356;2023-04-24T04:36:04;13.10;;;4.93;;
56760;SDS011;42633;44.494;11.356;2023-04-24T04:39:11;10.43;;;4.75;;
56760;SDS011;42633;44.494;11.356;2023-04-24T04:42:28;11.07;;;5.50;;
56760;SDS011;42633;44.494;11.356;2023-04-24T04:45:34;8.77;;;5.80;;
56760;SDS011;42633;44.494;11.356;2023-04-24T04:48:58;8.60;;;5.88;;
56760;SDS011;42633;44.494;11.356;2023-04-24T04:52:15;7.57;;;5.53;;
56760;SDS011;42633;44.494;11.356;2023-04-24T04:55:22;8.70;;;5.18;;
56760;SDS011;42633;44.494;11.356;2023-04-24T04:58:46;12.15;;;6.30;;
56760;SDS011;42633;44.494;11.356;2023-04-24T05:01:53;8.80;;;5.53;;
56760;SDS011;42633;44.494;11.356;2023-04-24T05:04:59;12.20;;;5.55;;
56760;SDS011;42633;44.494;11.356;2023-04-24T05:08:04;10.15;;;5.43;;
56760;SDS011;42633;44.494;11.356;2023-04-24T05:15:15;13.35;;;6.53;;
56760;SDS011;42633;44.494;11.356;2023-04-24T05:18:25;11.50;;;6.15;;
56760;SDS011;42633;44.494;11.356;2023-04-24T05:21:32;13.35;;;6.65;;
56760;SDS011;42633;44.494;11.356;2023-04-24T05:24:38;13.98;;;5.80;;
56760;SDS011;42633;44.494;11.356;2023-04-24T05:27:52;12.77;;;7.20;;
56760;SDS011;42633;44.494;11.356;2023-04-24T05:30:57;14.38;;;6.95;;
56760;SDS011;42633;44.494;11.356;2023-04-24T05:34:06;16.42;;;7.35;;
56760;SDS011;42633;44.494;11.356;2023-04-24T05:37:13;14.48;;;6.93;;
56760;SDS011;42633;44.494;11.356;2023-04-24T05:40:20;15.27;;;7.93;;
56760;SDS011;42633;44.494;11.356;2023-04-24T05:43:25;13.35;;;8.13;;
56760;SDS011;42633;44.494;11.356;2023-04-24T05:46:34;14.85;;;9.30;;
56760;SDS011;42633;44.494;11.356;2023-04-24T05:49:42;14.45;;;10.35;;
56760;SDS011;42633;44.494;11.356;2023-04-24T05:52:46;19.10;;;10.60;;
56760;SDS011;42633;44.494;11.356;2023-04-24T05:56:04;15.52;;;10.23;;
56760;SDS011;42633;44.494;11.356;2023-04-24T05:59:12;20.52;;;10.45;;
56760;SDS011;42633;44.494;11.356;2023-04-24T06:02:20;13.30;;;10.90;;
56760;SDS011;42633;44.494;11.356;2023-04-24T06:05:26;22.95;;;11.45;;
56760;SDS011;42633;44.494;11.356;2023-04-24T06:08:32;15.45;;;11.15;;
56760;SDS011;42633;44.494;11.356;2023-04-24T06:11:37;17.35;;;11.60;;
56760;SDS011;42633;44.494;11.356;2023-04-24T06:14:43;18.38;;;12.38;;
56760;SDS011;42633;44.494;11.356;2023-04-24T06:17:58;19.40;;;12.73;;
56760;SDS011;42633;44.494;11.356;2023-04-24T06:21:05;18.20;;;11.82;;
56760;SDS011;42633;44.494;11.356;2023-04-24T06:24:13;19.42;;;12.50;;
56760;SDS011;42633;44.494;11.356;2023-04-24T06:27:24;18.70;;;12.95;;
56760;SDS011;42633;44.494;11.356;2023-04-24T06:30:31;17.55;;;11.77;;
56760;SDS011;42633;44.494;11.356;2023-04-24T06:33:38;16.88;;;11.15;;
56760;SDS011;42633;44.494;11.356;2023-04-24T06:36:46;23.08;;;12.70;;
56760;SDS011;42633;44.494;11.356;2023-04-24T06:39:51;14.50;;;11.88;;
56760;SDS011;42633;44.494;11.356;2023-04-24T06:42:56;17.70;;;12.10;;
56760;SDS011;42633;44.494;11.356;2023-04-24T06:49:45;16.33;;;12.32;;
56760;SDS011;42633;44.494;11.356;2023-04-24T06:52:50;19.08;;;11.00;;
56760;SDS011;42633;44.494;11.356;2023-04-24T06:56:08;16.63;;;11.23;;
56760;SDS011;42633;44.494;11.356;2023-04-24T07:07:27;14.25;;;8.95;;
56760;SDS011;42633;44.494;11.356;2023-04-24T07:15:05;17.58;;;8.57;;
56760;SDS011;42633;44.494;11.356;2023-04-24T07:22:25;15.77;;;7.75;;
56760;SDS011;42633;44.494;11.356;2023-04-24T07:25:55;11.15;;;8.25;;
56760;SDS011;42633;44.494;11.356;2023-04-24T07:29:26;16.85;;;8.38;;
56760;SDS011;42633;44.494;11.356;2023-04-24T07:32:37;16.52;;;9.02;;
56760;SDS011;42633;44.494;11.356;2023-04-24T07:35:51;14.30;;;9.45;;
56760;SDS011;42633;44.494;11.356;2023-04-24T07:39:59;17.30;;;9.65;;
56760;SDS011;42633;44.494;11.356;2023-04-24T07:43:06;19.15;;;10.55;;
56760;SDS011;42633;44.494;11.356;2023-04-24T07:46:12;17.17;;;9.82;;
56760;SDS011;42633;44.494;11.356;2023-04-24T07:49:18;18.65;;;9.38;;
56760;SDS011;42633;44.494;11.356;2023-04-24T07:52:23;11.57;;;6.90;;
56760;SDS011;42633;44.494;11.356;2023-04-24T07:55:29;13.40;;;7.18;;
56760;SDS011;42633;44.494;11.356;2023-04-24T07:58:34;14.15;;;8.02;;
56760;SDS011;42633;44.494;11.356;2023-04-24T08:05:21;12.75;;;7.80;;
56760;SDS011;42633;44.494;11.356;2023-04-24T08:08:28;13.90;;;7.80;;
56760;SDS011;42633;44.494;11.356;2023-04-24T08:11:50;11.73;;;7.13;;
56760;SDS011;42633;44.494;11.356;2023-04-24T08:14:58;9.48;;;5.30;;
56760;SDS011;42633;44.494;11.356;2023-04-24T08:18:13;10.30;;;5.78;;
56760;SDS011;42633;44.494;11.356;2023-04-24T08:26:02;10.05;;;4.70;;
56760;SDS011;42633;44.494;11.356;2023-04-24T08:29:23;12.73;;;6.10;;
56760;SDS011;42633;44.494;11.356;2023-04-24T08:38:12;7.63;;;4.90;;
56760;SDS011;42633;44.494;11.356;2023-04-24T08:41:42;10.23;;;5.55;;
56760;SDS011;42633;44.494;11.356;2023-04-24T08:45:36;8.95;;;5.32;;
56760;SDS011;42633;44.494;11.356;2023-04-24T08:53:54;11.40;;;5.07;;
56760;SDS011;42633;44.494;11.356;2023-04-24T08:57:35;11.75;;;6.90;;
56760;SDS011;42633;44.494;11.356;2023-04-24T09:05:36;13.30;;;7.30;;
56760;SDS011;42633;44.494;11.356;2023-04-24T09:08:49;10.70;;;8.00;;
56760;SDS011;42633;44.494;11.356;2023-04-24T09:11:58;10.38;;;8.20;;
56760;SDS011;42633;44.494;11.356;2023-04-24T09:15:12;9.13;;;7.00;;
56760;SDS011;42633;44.494;11.356;2023-04-24T09:18:23;10.48;;;7.80;;
56760;SDS011;42633;44.494;11.356;2023-04-24T09:21:41;9.75;;;5.75;;
56760;SDS011;42633;44.494;11.356;2023-04-24T09:25:03;14.10;;;5.68;;
56760;SDS011;42633;44.494;11.356;2023-04-24T09:28:13;11.85;;;8.15;;
56760;SDS011;42633;44.494;11.356;2023-04-24T09:32:20;13.98;;;8.70;;
56760;SDS011;42633;44.494;11.356;2023-04-24T09:35:58;11.55;;;8.55;;
56760;SDS011;42633;44.494;11.356;2023-04-24T09:39:04;13.50;;;6.30;;
56760;SDS011;42633;44.494;11.356;2023-04-24T09:42:21;8.30;;;6.13;;
56760;SDS011;42633;44.494;11.356;2023-04-24T09:49:29;9.30;;;6.00;;
56760;SDS011;42633;44.494;11.356;2023-04-24T09:52:41;11.27;;;4.95;;
56760;SDS011;42633;44.494;11.356;2023-04-24T09:56:08;7.90;;;4.20;;
56760;SDS011;42633;44.494;11.356;2023-04-24T10:08:56;5.40;;;2.38;;
56760;SDS011;42633;44.494;11.356;2023-04-24T10:21:10;2.90;;;1.83;;
56760;SDS011;42633;44.494;11.356;2023-04-24T10:25:27;5.70;;;2.83;;
56760;SDS011;42633;44.494;11.356;2023-04-24T10:29:03;5.68;;;2.50;;
56760;SDS011;42633;44.494;11.356;2023-04-24T10:40:21;8.00;;;3.20;;
56760;SDS011;42633;44.494;11.356;2023-04-24T10:43:48;7.15;;;2.42;;
56760;SDS011;42633;44.494;11.356;2023-04-24T10:51:48;5.72;;;2.83;;
56760;SDS011;42633;44.494;11.356;2023-04-24T10:55:02;7.43;;;2.70;;
56760;SDS011;42633;44.494;11.356;2023-04-24T10:58:24;6.75;;;2.97;;
56760;SDS011;42633;44.494;11.356;2023-04-24T11:01:55;6.55;;;2.65;;
56760;SDS011;42633;44.494;11.356;2023-04-24T11:12:54;12.25;;;4.90;;
56760;SDS011;42633;44.494;11.356;2023-04-24T11:20:00;5.35;;;3.90;;
56760;SDS011;42633;44.494;11.356;2023-04-24T11:23:13;7.75;;;3.58;;
56760;SDS011;42633;44.494;11.356;2023-04-24T11:26:25;5.38;;;3.40;;
56760;SDS011;42633;44.494;11.356;2023-04-24T11:33:09;6.43;;;2.88;;
56760;SDS011;42633;44.494;11.356;2023-04-24T11:39:38;7.85;;;3.92;;
56760;SDS011;42633;44.494;11.356;2023-04-24T11:42:45;6.32;;;3.92;;
56760;SDS011;42633;44.494;11.356;2023-04-24T11:46:11;4.75;;;3.65;;
56760;SDS011;42633;44.494;11.356;2023-04-24T11:49:38;6.07;;;4.28;;
56760;SDS011;42633;44.494;11.356;2023-04-24T11:53:48;9.68;;;4.57;;
56760;SDS011;42633;44.494;11.356;2023-04-24T11:57:10;8.68;;;4.28;;
56760;SDS011;42633;44.494;11.356;2023-04-24T12:00:37;9.18;;;4.28;;
56760;SDS011;42633;44.494;11.356;2023-04-24T12:04:12;9.63;;;4.20;;
56760;SDS011;42633;44.494;11.356;2023-04-24T12:07:42;8.32;;;3.95;;
56760;SDS011;42633;44.494;11.356;2023-04-24T12:10:59;4.13;;;3.30;;
56760;SDS011;42633;44.494;11.356;2023-04-24T12:14:18;6.53;;;3.60;;
56760;SDS011;42633;44.494;11.356;2023-04-24T12:17:41;6.85;;;4.00;;
56760;SDS011;42633;44.494;11.356;2023-04-24T12:21:01;8.85;;;3.83;;
56760;SDS011;42633;44.494;11.356;2023-04-24T12:24:32;6.80;;;3.55;;
56760;SDS011;42633;44.494;11.356;2023-04-24T12:27:46;4.72;;;3.00;;
56760;SDS011;42633;44.494;11.356;2023-04-24T12:31:04;7.05;;;3.28;;
56760;SDS011;42633;44.494;11.356;2023-04-24T12:34:20;7.50;;;3.15;;
56760;SDS011;42633;44.494;11.356;2023-04-24T12:37:43;6.13;;;3.33;;
56760;SDS011;42633;44.494;11.356;2023-04-24T12:41:08;7.90;;;4.00;;
56760;SDS011;42633;44.494;11.356;2023-04-24T12:44:17;7.28;;;4.05;;
56760;SDS011;42633;44.494;11.356;2023-04-24T12:51:12;4.55;;;3.03;;
56760;SDS011;42633;44.494;11.356;2023-04-24T12:54:21;7.50;;;3.00;;
56760;SDS011;42633;44.494;11.356;2023-04-24T12:57:54;5.70;;;3.28;;
56760;SDS011;42633;44.494;11.356;2023-04-24T13:01:10;4.95;;;2.90;;
56760;SDS011;42633;44.494;11.356;2023-04-24T13:04:19;3.83;;;3.00;;
56760;SDS011;42633;44.494;11.356;2023-04-24T13:07:37;5.15;;;2.88;;
56760;SDS011;42633;44.494;11.356;2023-04-24T13:14:47;6.82;;;2.75;;
56760;SDS011;42633;44.494;11.356;2023-04-24T13:21:20;4.32;;;2.67;;
56760;SDS011;42633;44.494;11.356;2023-04-24T13:25:05;4.82;;;3.08;;
56760;SDS011;42633;44.494;11.356;2023-04-24T13:28:15;3.92;;;2.35;;
56760;SDS011;42633;44.494;11.356;2023-04-24T13:31:28;4.05;;;2.90;;
56760;SDS011;42633;44.494;11.356;2023-04-24T13:35:10;8.93;;;2.50;;
56760;SDS011;42633;44.494;11.356;2023-04-24T13:38:35;4.38;;;2.50;;
56760;SDS011;42633;44.494;11.356;2023-04-24T13:41:45;4.32;;;3.03;;
56760;SDS011;42633;44.494;11.356;2023-04-24T13:45:01;6.85;;;3.10;;
56760;SDS011;42633;44.494;11.356;2023-04-24T13:48:23;3.92;;;3.30;;
56760;SDS011;42633;44.494;11.356;2023-04-24T13:52:29;5.70;;;2.90;;
56760;SDS011;42633;44.494;11.356;2023-04-24T13:56:05;6.40;;;3.28;;
56760;SDS011;42633;44.494;11.356;2023-04-24T13:59:42;4.28;;;3.28;;
56760;SDS011;42633;44.494;11.356;2023-04-24T14:03:43;7.00;;;3.20;;
56760;SDS011;42633;44.494;11.356;2023-04-24T14:06:59;3.22;;;2.30;;
56760;SDS011;42633;44.494;11.356;2023-04-24T14:10:14;6.15;;;3.45;;
56760;SDS011;42633;44.494;11.356;2023-04-24T14:13:22;4.45;;;2.65;;
56760;SDS011;42633;44.494;11.356;2023-04-24T14:21:18;5.55;;;3.15;;
56760;SDS011;42633;44.494;11.356;2023-04-24T14:24:36;2.77;;;2.00;;
56760;SDS011;42633;44.494;11.356;2023-04-24T14:27:46;3.38;;;2.35;;
56760;SDS011;42633;44.494;11.356;2023-04-24T14:31:20;4.97;;;2.30;;
56760;SDS011;42633;44.494;11.356;2023-04-24T14:34:53;3.47;;;2.60;;
56760;SDS011;42633;44.494;11.356;2023-04-24T14:38:07;3.88;;;2.50;;
56760;SDS011;42633;44.494;11.356;2023-04-24T14:41:14;4.72;;;2.42;;
56760;SDS011;42633;44.494;11.356;2023-04-24T14:44:27;7.95;;;3.72;;
56760;SDS011;42633;44.494;11.356;2023-04-24T14:47:52;2.65;;;2.28;;
56760;SDS011;42633;44.494;11.356;2023-04-24T14:51:08;3.53;;;2.80;;
56760;SDS011;42633;44.494;11.356;2023-04-24T14:54:43;3.20;;;2.47;;
56760;SDS011;42633;44.494;11.356;2023-04-24T14:58:05;3.15;;;2.65;;
56760;SDS011;42633;44.494;11.356;2023-04-24T15:01:12;11.25;;;2.30;;
56760;SDS011;42633;44.494;11.356;2023-04-24T15:04:29;7.50;;;2.70;;
56760;SDS011;42633;44.494;11.356;2023-04-24T15:08:15;4.47;;;3.10;;
56760;SDS011;42633;44.494;11.356;2023-04-24T15:11:25;2.78;;;2.15;;
56760;SDS011;42633;44.494;11.356;2023-04-24T15:14:30;3.95;;;2.95;;
56760;SDS011;42633;44.494;11.356;2023-04-24T15:17:48;7.35;;;4.90;;
56760;SDS011;42633;44.494;11.356;2023-04-24T15:21:07;6.93;;;4.43;;
56760;SDS011;42633;44.494;11.356;2023-04-24T15:24:34;5.45;;;4.63;;
56760;SDS011;42633;44.494;11.356;2023-04-24T15:27:49;7.25;;;3.72;;
56760;SDS011;42633;44.494;11.356;2023-04-24T15:31:13;9.90;;;5.55;;
56760;SDS011;42633;44.494;11.356;2023-04-24T15:35:11;7.05;;;4.78;;
56760;SDS011;42633;44.494;11.356;2023-04-24T15:38:51;7.28;;;5.28;;
56760;SDS011;42633;44.494;11.356;2023-04-24T15:42:12;8.70;;;5.15;;
56760;SDS011;42633;44.494;11.356;2023-04-24T15:46:00;6.82;;;4.40;;
56760;SDS011;42633;44.494;11.356;2023-04-24T15:49:37;6.90;;;4.40;;
56760;SDS011;42633;44.494;11.356;2023-04-24T15:52:57;4.80;;;2.38;;
56760;SDS011;42633;44.494;11.356;2023-04-24T15:56:44;5.30;;;1.77;;
56760;SDS011;42633;44.494;11.356;2023-04-24T15:59:51;8.32;;;4.55;;
56760;SDS011;42633;44.494;11.356;2023-04-24T16:03:19;9.93;;;4.30;;
56760;SDS011;42633;44.494;11.356;2023-04-24T16:06:40;8.25;;;4.30;;
56760;SDS011;42633;44.494;11.356;2023-04-24T16:09:51;6.18;;;4.22;;
56760;SDS011;42633;44.494;11.356;2023-04-24T16:12:58;7.75;;;2.88;;
56760;SDS011;42633;44.494;11.356;2023-04-24T16:16:13;4.10;;;2.10;;
56760;SDS011;42633;44.494;11.356;2023-04-24T16:23:50;5.07;;;2.58;;
56760;SDS011;42633;44.494;11.356;2023-04-24T16:26:58;4.32;;;1.70;;
56760;SDS011;42633;44.494;11.356;2023-04-24T16:30:05;8.27;;;3.00;;
56760;SDS011;42633;44.494;11.356;2023-04-24T16:33:27;7.18;;;2.35;;
56760;SDS011;42633;44.494;11.356;2023-04-24T16:36:38;5.30;;;2.08;;
56760;SDS011;42633;44.494;11.356;2023-04-24T16:39:48;6.45;;;1.75;;
56760;SDS011;42633;44.494;11.356;2023-04-24T16:42:55;11.93;;;4.97;;
56760;SDS011;42633;44.494;11.356;2023-04-24T16:46:03;3.88;;;1.70;;
56760;SDS011;42633;44.494;11.356;2023-04-24T16:49:47;7.93;;;2.10;;
56760;SDS011;42633;44.494;11.356;2023-04-24T16:53:35;2.72;;;1.55;;
56760;SDS011;42633;44.494;11.356;2023-04-24T16:56:40;2.40;;;1.02;;
56760;SDS011;42633;44.494;11.356;2023-04-24T17:00:15;6.32;;;1.80;;
56760;SDS011;42633;44.494;11.356;2023-04-24T17:03:39;9.35;;;1.80;;
56760;SDS011;42633;44.494;11.356;2023-04-24T17:07:02;6.80;;;3.20;;
56760;SDS011;42633;44.494;11.356;2023-04-24T17:10:23;6.22;;;2.40;;
56760;SDS011;42633;44.494;11.356;2023-04-24T17:17:23;11.40;;;2.80;;
56760;SDS011;42633;44.494;11.356;2023-04-24T17:20:52;4.95;;;2.28;;
56760;SDS011;42633;44.494;11.356;2023-04-24T17:24:05;8.68;;;2.33;;
56760;SDS011;42633;44.494;11.356;2023-04-24T17:30:52;2.55;;;1.35;;
56760;SDS011;42633;44.494;11.356;2023-04-24T17:37:13;1.50;;;0.60;;
56760;SDS011;42633;44.494;11.356;2023-04-24T17:40:27;14.32;;;8.95;;
56760;SDS011;42633;44.494;11.356;2023-04-24T17:43:34;8.55;;;5.55;;
56760;SDS011;42633;44.494;11.356;2023-04-24T17:46:49;1.08;;;0.65;;
56760;SDS011;42633;44.494;11.356;2023-04-24T17:49:54;2.10;;;1.90;;
56760;SDS011;42633;44.494;11.356;2023-04-24T17:53:22;20.80;;;9.40;;
56760;SDS011;42633;44.494;11.356;2023-04-24T17:56:33;1.15;;;0.80;;
56760;SDS011;42633;44.494;11.356;2023-04-24T17:59:39;3.85;;;1.58;;
56760;SDS011;42633;44.494;11.356;2023-04-24T18:02:57;2.92;;;1.48;;
56760;SDS011;42633;44.494;11.356;2023-04-24T18:06:17;2.63;;;1.98;;
56760;SDS011;42633;44.494;11.356;2023-04-24T18:09:30;5.97;;;1.38;;
56760;SDS011;42633;44.494;11.356;2023-04-24T18:12:51;2.65;;;1.20;;
56760;SDS011;42633;44.494;11.356;2023-04-24T18:16:02;5.38;;;2.50;;
56760;SDS011;42633;44.494;11.356;2023-04-24T18:19:11;8.38;;;2.40;;
56760;SDS011;42633;44.494;11.356;2023-04-24T18:22:19;8.27;;;2.63;;
56760;SDS011;42633;44.494;11.356;2023-04-24T18:25:27;4.65;;;2.50;;
56760;SDS011;42633;44.494;11.356;2023-04-24T18:28:43;4.20;;;2.80;;
56760;SDS011;42633;44.494;11.356;2023-04-24T18:31:52;9.65;;;3.55;;
56760;SDS011;42633;44.494;11.356;2023-04-24T18:35:22;11.48;;;4.10;;
56760;SDS011;42633;44.494;11.356;2023-04-24T18:38:28;6.72;;;3.65;;
56760;SDS011;42633;44.494;11.356;2023-04-24T18:41:58;7.30;;;3.78;;
56760;SDS011;42633;44.494;11.356;2023-04-24T18:45:06;5.90;;;3.03;;
56760;SDS011;42633;44.494;11.356;2023-04-24T18:48:12;7.90;;;3.72;;
56760;SDS011;42633;44.494;11.356;2023-04-24T18:54:36;6.57;;;3.60;;
56760;SDS011;42633;44.494;11.356;2023-04-24T18:57:43;6.47;;;3.38;;
56760;SDS011;42633;44.494;11.356;2023-04-24T19:00:55;6.97;;;3.92;;
56760;SDS011;42633;44.494;11.356;2023-04-24T19:04:12;7.53;;;3.38;;
56760;SDS011;42633;44.494;11.356;2023-04-24T19:07:16;6.43;;;3.35;;
56760;SDS011;42633;44.494;11.356;2023-04-24T19:10:25;9.90;;;4.28;;
56760;SDS011;42633;44.494;11.356;2023-04-24T19:13:31;8.18;;;5.72;;
56760;SDS011;42633;44.494;11.356;2023-04-24T19:16:41;6.97;;;3.80;;
56760;SDS011;42633;44.494;11.356;2023-04-24T19:19:52;10.25;;;5.75;;
56760;SDS011;42633;44.494;11.356;2023-04-24T19:22:56;11.50;;;4.88;;
56760;SDS011;42633;44.494;11.356;2023-04-24T19:26:06;7.97;;;3.50;;
56760;SDS011;42633;44.494;11.356;2023-04-24T19:29:17;6.45;;;2.70;;
56760;SDS011;42633;44.494;11.356;2023-04-24T19:32:26;6.35;;;3.35;;
56760;SDS011;42633;44.494;11.356;2023-04-24T19:35:42;7.15;;;3.65;;
56760;SDS011;42633;44.494;11.356;2023-04-24T19:38:51;9.63;;;4.75;;
56760;SDS011;42633;44.494;11.356;2023-04-24T19:42:02;14.15;;;8.07;;
56760;SDS011;42633;44.494;11.356;2023-04-24T19:45:11;14.75;;;8.13;;
56760;SDS011;42633;44.494;11.356;2023-04-24T19:48:19;12.70;;;7.47;;
56760;SDS011;42633;44.494;11.356;2023-04-24T19:51:28;8.20;;;5.82;;
56760;SDS011;42633;44.494;11.356;2023-04-24T19:54:33;13.23;;;8.75;;
56760;SDS011;42633;44.494;11.356;2023-04-24T19:57:46;5.88;;;4.03;;
56760;SDS011;42633;44.494;11.356;2023-04-24T20:04:23;6.38;;;3.70;;
56760;SDS011;42633;44.494;11.356;2023-04-24T20:07:40;6.63;;;2.50;;
56760;SDS011;42633;44.494;11.356;2023-04-24T20:10:57;3.92;;;2.55;;
56760;SDS011;42633;44.494;11.356;2023-04-24T20:14:15;3.00;;;2.08;;
56760;SDS011;42633;44.494;11.356;2023-04-24T20:17:23;4.53;;;2.63;;
56760;SDS011;42633;44.494;11.356;2023-04-24T20:20:43;6.80;;;3.70;;
56760;SDS011;42633;44.494;11.356;2023-04-24T20:23:58;9.80;;;6.80;;
56760;SDS011;42633;44.494;11.356;2023-04-24T20:27:06;5.07;;;3.20;;
56760;SDS011;42633;44.494;11.356;2023-04-24T20:30:14;4.07;;;2.80;;
56760;SDS011;42633;44.494;11.356;2023-04-24T20:33:22;4.78;;;2.60;;
56760;SDS011;42633;44.494;11.356;2023-04-24T20:36:37;4.47;;;2.38;;
56760;SDS011;42633;44.494;11.356;2023-04-24T20:39:41;4.93;;;2.15;;
56760;SDS011;42633;44.494;11.356;2023-04-24T20:42:49;5.07;;;2.75;;
56760;SDS011;42633;44.494;11.356;2023-04-24T20:46:19;3.97;;;2.05;;
56760;SDS011;42633;44.494;11.356;2023-04-24T20:49:24;10.48;;;2.22;;
56760;SDS011;42633;44.494;11.356;2023-04-24T20:52:33;7.38;;;3.95;;
56760;SDS011;42633;44.494;11.356;2023-04-24T20:55:42;4.60;;;2.45;;
56760;SDS011;42633;44.494;11.356;2023-04-24T20:58:50;9.65;;;3.28;;
56760;SDS011;42633;44.494;11.356;2023-04-24T21:01:59;6.63;;;3.97;;
56760;SDS011;42633;44.494;11.356;2023-04-24T21:05:10;10.50;;;6.70;;
56760;SDS011;42633;44.494;11.356;2023-04-24T21:08:14;4.75;;;2.55;;
56760;SDS011;42633;44.494;11.356;2023-04-24T21:11:24;3.45;;;2.67;;
56760;SDS011;42633;44.494;11.356;2023-04-24T21:14:39;4.90;;;1.90;;
56760;SDS011;42633;44.494;11.356;2023-04-24T21:17:58;4.32;;;1.30;;
56760;SDS011;42633;44.494;11.356;2023-04-24T21:21:06;3.50;;;1.45;;
56760;SDS011;42633;44.494;11.356;2023-04-24T21:24:14;4.00;;;1.63;;
56760;SDS011;42633;44.494;11.356;2023-04-24T21:27:19;5.90;;;2.55;;
56760;SDS011;42633;44.494;11.356;2023-04-24T21:30:27;3.22;;;1.83;;
56760;SDS011;42633;44.494;11.356;2023-04-24T21:33:31;5.50;;;1.80;;
56760;SDS011;42633;44.494;11.356;2023-04-24T21:36:37;5.15;;;2.15;;
56760;SDS011;42633;44.494;11.356;2023-04-24T21:39:42;5.43;;;1.90;;